Time,TemperatureF,DewpointF,PressureIn,WindDirection,WindDirectionDegrees,WindSpeedMPH,WindSpeedGustMPH,Humidity,HourlyPrecipIn,Conditions,Clouds,dailyrainin,SoftwareType,DateUTC
2013-09-12 00:12:00,63.0,58.0,29.90,SW,228,5.0,9.0,85,0.00,,,0.00,,2013-09-12 07:12:00,
2013-09-12 00:21:00,62.0,57.0,29.90,SSW,213,2.0,7.0,85,0.00,,,0.00,,2013-09-12 07:21:00,
2013-09-12 00:52:00,62.0,58.0,29.90,SW,226,3.0,6.0,87,0.00,,,0.00,,2013-09-12 07:52:00,
2013-09-12 01:22:00,62.0,58.0,29.91,SW,235,2.0,7.0,88,0.00,,,0.00,,2013-09-12 08:22:00,
2013-09-12 01:52:00,61.0,57.0,29.91,SW,222,2.0,6.0,88,0.00,,,0.00,,2013-09-12 08:52:00,
2013-09-12 02:21:00,61.0,58.0,29.91,SW,220,2.0,6.0,89,0.00,,,0.00,,2013-09-12 09:21:00,
2013-09-12 02:53:00,61.0,58.0,29.91,SW,226,3.0,5.0,90,0.00,,,0.00,,2013-09-12 09:53:00,
2013-09-12 03:23:00,60.0,57.0,29.90,SSW,200,1.0,6.0,90,0.00,,,0.00,,2013-09-12 10:23:00,
2013-09-12 03:53:00,60.0,57.0,29.90,SW,225,1.0,6.0,91,0.00,,,0.00,,2013-09-12 10:53:00,
2013-09-12 04:21:00,60.0,58.0,29.90,SW,219,1.0,3.0,92,0.00,,,0.00,,2013-09-12 11:21:00,
2013-09-12 04:52:00,59.0,57.0,29.90,SSW,207,0.0,3.0,92,0.00,,,0.00,,2013-09-12 11:52:00,
2013-09-12 05:21:00,58.0,56.0,29.90,SSW,207,0.0,1.0,93,0.00,,,0.00,,2013-09-12 12:21:00,
2013-09-12 05:52:00,58.0,56.0,29.90,SSW,207,0.0,1.0,94,0.00,,,0.00,,2013-09-12 12:52:00,
2013-09-12 06:22:00,57.0,55.0,29.91,SSW,207,0.0,1.0,94,0.00,,,0.00,,2013-09-12 13:22:00,
2013-09-12 06:52:00,57.0,56.0,29.91,SSW,207,0.0,1.0,95,0.00,,,0.00,,2013-09-12 13:52:00,
2013-09-12 07:22:00,58.0,57.0,29.92,SSW,207,0.0,1.0,96,0.00,,,0.00,,2013-09-12 14:22:00,
2013-09-12 07:52:00,60.0,59.0,29.93,SSW,207,0.0,1.0,96,0.00,,,0.00,,2013-09-12 14:52:00,
2013-09-12 08:22:00,61.0,59.0,29.93,SSW,204,0.0,2.0,94,0.00,,,0.00,,2013-09-12 15:22:00,
2013-09-12 08:54:00,62.0,59.0,29.93,SW,226,1.0,4.0,90,0.00,,,0.00,,2013-09-12 15:54:00,
2013-09-12 09:23:00,65.0,60.0,29.93,SW,229,2.0,6.0,84,0.00,,,0.00,,2013-09-12 16:23:00,
2013-09-12 09:53:00,66.0,60.0,29.94,WSW,256,0.0,5.0,80,0.00,,,0.00,,2013-09-12 16:53:00,
2013-09-12 10:23:00,67.0,60.0,29.94,West,266,1.0,6.0,78,0.00,,,0.00,,2013-09-12 17:23:00,
2013-09-12 10:53:00,70.0,61.0,29.93,WSW,252,2.0,6.0,72,0.00,,,0.00,,2013-09-12 17:53:00,
2013-09-12 11:21:00,72.0,61.0,29.93,WSW,253,3.0,8.0,68,0.00,,,0.00,,2013-09-12 18:21:00,
2013-09-12 11:52:00,74.0,61.0,29.92,WSW,249,4.0,8.0,63,0.00,,,0.00,,2013-09-12 18:52:00,
2013-09-12 12:12:00,75.0,62.0,29.92,West,271,1.0,7.0,63,0.00,,,0.00,,2013-09-12 19:12:00,
2013-09-12 12:22:00,76.0,62.0,29.91,NW,306,2.0,9.0,61,0.00,,,0.00,,2013-09-12 19:22:00,
2013-09-12 12:52:00,77.0,62.0,29.90,WSW,253,2.0,5.0,59,0.00,,,0.00,,2013-09-12 19:52:00,
2013-09-12 13:11:00,78.0,61.0,29.90,WNW,294,2.0,6.0,56,0.00,,,0.00,,2013-09-12 20:11:00,
2013-09-12 13:22:00,79.0,61.0,29.89,WSW,252,3.0,9.0,54,0.00,,,0.00,,2013-09-12 20:22:00,
2013-09-12 13:52:00,81.0,62.0,29.88,NNW,346,1.0,6.0,52,0.00,,,0.00,,2013-09-12 20:52:00,
2013-09-12 14:21:00,83.0,62.0,29.86,SW,236,2.0,5.0,49,0.00,,,0.00,,2013-09-12 21:21:00,
2013-09-12 14:54:00,83.0,61.0,29.85,NNW,328,0.0,7.0,48,0.00,,,0.00,,2013-09-12 21:54:00,
2013-09-12 15:24:00,86.0,61.0,29.83,NE,34,0.0,5.0,43,0.00,,,0.00,,2013-09-12 22:24:00,
2013-09-12 15:54:00,87.0,59.0,29.82,WNW,290,1.0,5.0,39,0.00,,,0.00,,2013-09-12 22:54:00,
2013-09-12 16:23:00,88.0,61.0,29.81,West,265,0.0,3.0,40,0.00,,,0.00,,2013-09-12 23:23:00,
2013-09-12 16:52:00,88.0,59.0,29.80,WSW,246,3.0,7.0,38,0.00,,,0.00,,2013-09-12 23:52:00,
2013-09-12 17:11:00,87.0,60.0,29.80,West,262,0.0,6.0,41,0.00,,,0.00,,2013-09-13 00:11:00,
2013-09-12 17:22:00,87.0,61.0,29.79,West,265,2.0,6.0,42,0.00,,,0.00,,2013-09-13 00:22:00,
2013-09-12 17:52:00,86.0,61.0,29.79,WSW,254,2.0,6.0,43,0.00,,,0.00,,2013-09-13 00:52:00,
2013-09-12 18:21:00,86.0,61.0,29.80,WSW,252,2.0,7.0,43,0.00,,,0.00,,2013-09-13 01:21:00,
2013-09-12 18:42:00,85.0,61.0,29.79,WSW,252,2.0,7.0,44,0.00,,,0.00,,2013-09-13 01:42:00,
2013-09-12 18:52:00,84.0,61.0,29.80,WSW,249,3.0,8.0,46,0.00,,,0.00,,2013-09-13 01:52:00,
2013-09-12 19:11:00,82.0,60.0,29.79,WSW,257,6.0,10.0,48,0.00,,,0.00,,2013-09-13 02:11:00,
2013-09-12 19:22:00,81.0,60.0,29.80,WSW,251,3.0,9.0,49,0.00,,,0.00,,2013-09-13 02:22:00,
2013-09-12 19:53:00,77.0,60.0,29.80,WSW,254,6.0,13.0,56,0.00,,,0.00,,2013-09-13 02:53:00,
2013-09-12 20:22:00,74.0,60.0,29.80,West,260,3.0,7.0,61,0.00,,,0.00,,2013-09-13 03:22:00,
2013-09-12 20:55:00,72.0,59.0,29.82,WSW,249,2.0,7.0,63,0.00,,,0.00,,2013-09-13 03:55:00,
2013-09-12 21:24:00,70.0,58.0,29.83,WSW,257,4.0,7.0,66,0.00,,,0.00,,2013-09-13 04:24:00,
2013-09-12 21:54:00,69.0,58.0,29.83,WSW,253,4.0,8.0,69,0.00,,,0.00,,2013-09-13 04:54:00,
2013-09-12 22:13:00,68.0,58.0,29.83,West,260,4.0,7.0,70,0.00,,,0.00,,2013-09-13 05:13:00,
2013-09-12 22:22:00,68.0,58.0,29.82,WSW,257,3.0,8.0,71,0.00,,,0.00,,2013-09-13 05:22:00,
2013-09-12 22:53:00,66.0,57.0,29.83,West,259,2.0,7.0,74,0.00,,,0.00,,2013-09-13 05:53:00,
2013-09-12 23:12:00,65.0,57.0,29.83,WSW,256,0.0,3.0,75,0.00,,,0.00,,2013-09-13 06:12:00,
2013-09-12 23:22:00,65.0,58.0,29.83,West,262,1.0,4.0,78,0.00,,,0.00,,2013-09-13 06:22:00,
2013-09-12 23:52:00,64.0,58.0,29.83,SW,235,0.0,5.0,80,0.00,,,0.00,,2013-09-13 06:52:00,